Time;durP1;ratioP1;P1;durP2;ratioP2;P2;SDS_P1;SDS_P2;PMS_P1;PMS_P2;Temp;Humidity;BMP_temperature;BMP_pressure;BME280_temperature;BME280_humidity;BME280_pressure;Samples;Min_cycle;Max_cycle;Signal;HPM_P1;HPM_P2
2022/12/02 00:01:51;;;;;;;24.90;11.37;;;4.20;99.90;;;4.65;100.00;98689.44;5041288;28;20476;-84
2022/12/02 00:04:23;;;;;;;26.30;11.73;;;4.10;99.90;;;4.68;100.00;98683.97;5043549;28;20468;-84
2022/12/02 00:06:55;;;;;;;24.90;13.10;;;4.20;99.90;;;4.62;100.00;98679.34;5041549;28;20977;-84
2022/12/02 00:09:31;;;;;;;25.80;11.97;;;4.10;99.90;;;4.63;100.00;98680.97;5046647;28;20559;-83
2022/12/02 00:12:11;;;;;;;24.60;11.93;;;4.10;99.90;;;4.67;100.00;98677.97;5045449;28;20468;-84
2022/12/02 00:14:41;;;;;;;26.67;11.60;;;4.20;99.90;;;4.66;100.00;98672.91;5041950;28;20466;-84
2022/12/02 00:17:11;;;;;;;30.70;13.27;;;4.10;99.90;;;4.65;100.00;98674.69;5043928;28;20966;-84
2022/12/02 00:19:39;;;;;;;25.00;12.80;;;4.10;99.90;;;4.64;100.00;98672.25;5045786;28;20542;-83
2022/12/02 00:22:08;;;;;;;27.00;13.47;;;4.10;99.90;;;4.62;100.00;98666.41;5047663;28;20567;-84
2022/12/02 00:24:37;;;;;;;25.70;12.77;;;4.00;99.90;;;4.57;100.00;98664.19;5045189;28;20500;-84
2022/12/02 00:27:06;;;;;;;25.80;14.03;;;4.00;99.90;;;4.62;100.00;98669.00;5043236;28;20515;-84
2022/12/02 00:29:35;;;;;;;27.13;13.43;;;4.00;99.90;;;4.61;100.00;98662.16;5044394;28;20468;-84
2022/12/02 00:32:08;;;;;;;26.60;12.03;;;4.00;99.90;;;4.62;100.00;98661.22;5045856;28;20560;-84
2022/12/02 00:34:38;;;;;;;28.83;12.90;;;4.10;99.90;;;4.64;100.00;98667.91;5042886;28;20464;-83
2022/12/02 00:37:08;;;;;;;28.17;12.83;;;4.10;99.90;;;4.65;100.00;98655.78;5043484;28;20536;-84
2022/12/02 00:39:37;;;;;;;26.47;13.33;;;4.10;99.90;;;4.59;100.00;98659.69;5038933;28;20559;-84
2022/12/02 00:42:07;;;;;;;23.87;12.23;;;4.10;99.90;;;4.63;100.00;98657.66;5042765;28;20986;-84
2022/12/02 00:47:28;;;;;;;30.10;13.57;;;4.20;99.90;;;4.63;100.00;98655.88;5015287;28;20470;-84
2022/12/02 00:49:58;;;;;;;22.10;12.30;;;4.10;99.90;;;4.67;100.00;98653.84;5041457;28;20571;-84
2022/12/02 00:52:28;;;;;;;21.30;12.53;;;4.10;99.90;;;4.62;100.00;98648.28;5039968;28;20456;-84
2022/12/02 00:54:57;;;;;;;27.40;11.93;;;4.10;99.90;;;4.57;100.00;98652.06;5042149;28;20477;-84
2022/12/02 00:57:26;;;;;;;26.37;13.70;;;4.10;99.90;;;4.62;100.00;98654.25;5046041;28;20978;-84
2022/12/02 00:59:55;;;;;;;28.83;13.10;;;4.10;99.90;;;4.62;100.00;98651.66;5042923;28;20475;-84
2022/12/02 01:02:25;;;;;;;26.90;13.70;;;4.10;99.90;;;4.61;100.00;98646.63;5040345;28;20485;-83
2022/12/02 01:04:56;;;;;;;25.57;12.20;;;4.10;99.90;;;4.60;100.00;98653.56;5043072;28;20517;-83
2022/12/02 01:07:26;;;;;;;26.20;11.70;;;4.10;99.90;;;4.58;100.00;98640.75;5044510;28;20472;-84
2022/12/02 01:09:56;;;;;;;27.77;12.23;;;4.00;99.90;;;4.60;100.00;98643.22;5041127;28;20469;-84
2022/12/02 01:12:25;;;;;;;28.60;13.43;;;4.00;99.90;;;4.62;100.00;98636.13;5040184;28;21332;-84
2022/12/02 01:14:55;;;;;;;25.70;12.43;;;4.10;99.90;;;4.52;100.00;98643.88;5042687;28;20456;-84
2022/12/02 01:17:25;;;;;;;23.60;11.67;;;4.00;99.90;;;4.61;100.00;98638.84;5044203;28;21014;-84
2022/12/02 01:19:56;;;;;;;27.20;11.80;;;4.10;99.90;;;4.64;100.00;98642.00;5040857;28;20461;-84
2022/12/02 01:22:26;;;;;;;28.03;12.70;;;4.10;99.90;;;4.64;100.00;98641.16;5055021;28;20488;-84
2022/12/02 01:24:56;;;;;;;24.43;12.30;;;4.10;99.90;;;4.65;100.00;98641.03;5043538;28;20877;-84
2022/12/02 01:27:25;;;;;;;24.83;13.17;;;4.10;99.90;;;4.66;100.00;98634.91;5042468;28;20560;-84
2022/12/02 01:29:54;;;;;;;26.00;12.07;;;4.10;99.90;;;4.69;100.00;98638.97;5040782;28;20556;-84
2022/12/02 01:32:24;;;;;;;25.37;12.80;;;4.10;99.90;;;4.69;100.00;98633.81;5038743;28;20491;-84
2022/12/02 01:34:53;;;;;;;30.03;12.53;;;4.20;99.90;;;4.65;100.00;98635.06;5042497;28;20457;-84
2022/12/02 01:37:24;;;;;;;24.40;11.70;;;4.10;99.90;;;4.65;100.00;98643.59;5040993;28;20860;-84
2022/12/02 01:39:54;;;;;;;29.47;12.93;;;4.10;99.90;;;4.65;100.00;98643.59;5042145;28;20476;-84
2022/12/02 01:42:25;;;;;;;26.97;12.63;;;4.20;99.90;;;4.57;100.00;98646.91;5042258;28;20553;-83
2022/12/02 01:44:54;;;;;;;28.07;12.43;;;4.00;99.90;;;4.62;100.00;98649.06;5042412;28;20566;-83
2022/12/02 01:47:25;;;;;;;26.27;13.37;;;4.10;99.90;;;4.64;100.00;98648.94;5038792;28;21207;-84
2022/12/02 01:49:55;;;;;;;23.47;11.80;;;4.10;99.90;;;4.57;100.00;98643.47;5040320;28;20484;-83
2022/12/02 01:52:27;;;;;;;29.27;12.70;;;4.10;99.90;;;4.63;100.00;98639.53;5041556;28;20462;-84
2022/12/02 01:54:56;;;;;;;25.53;11.70;;;4.10;99.90;;;4.63;100.00;98644.69;5044933;28;20470;-83
2022/12/02 01:57:28;;;;;;;22.27;11.77;;;4.20;99.90;;;4.61;100.00;98631.91;5044046;28;20599;-84
2022/12/02 01:59:58;;;;;;;24.93;11.60;;;4.10;99.90;;;4.60;100.00;98638.03;5042820;28;20878;-84
2022/12/02 02:02:31;;;;;;;25.67;12.03;;;4.00;99.90;;;4.62;100.00;98637.91;5041226;28;21014;-84
2022/12/02 02:05:05;;;;;;;23.23;11.80;;;4.20;99.90;;;4.63;100.00;98640.34;5041107;28;20467;-84
2022/12/02 02:07:38;;;;;;;22.93;12.07;;;4.10;99.90;;;4.60;100.00;98640.63;5041853;28;20473;-84
2022/12/02 02:10:09;;;;;;;24.23;12.10;;;4.10;99.90;;;4.55;100.00;98635.84;5039386;28;20561;-83
2022/12/02 02:12:39;;;;;;;28.43;11.53;;;4.00;99.90;;;4.58;100.00;98632.19;5042229;28;20467;-84
2022/12/02 02:15:12;;;;;;;28.80;12.43;;;4.10;99.90;;;4.58;100.00;98630.38;5045152;28;20498;-84
2022/12/02 02:17:42;;;;;;;22.43;11.10;;;4.00;99.90;;;4.63;100.00;98636.94;5048128;28;20666;-83
2022/12/02 02:20:16;;;;;;;23.53;12.40;;;4.00;99.90;;;4.64;100.00;98628.22;5043220;28;20464;-84
2022/12/02 02:22:56;;;;;;;22.90;12.30;;;4.10;99.90;;;4.66;100.00;98634.06;5043972;28;20500;-83
2022/12/02 02:25:27;;;;;;;25.13;11.80;;;4.20;99.90;;;4.63;100.00;98630.00;5046699;28;20495;-84
2022/12/02 02:28:00;;;;;;;23.80;11.00;;;4.20;99.90;;;4.63;100.00;98629.16;5048599;28;20463;-83
2022/12/02 02:30:32;;;;;;;24.20;11.90;;;4.10;99.90;;;4.62;100.00;98623.16;5044258;28;20482;-84
2022/12/02 02:33:04;;;;;;;21.67;11.10;;;4.10;99.90;;;4.61;100.00;98625.91;5041961;28;20483;-84
2022/12/02 02:35:36;;;;;;;28.90;12.27;;;4.10;99.90;;;4.63;100.00;98622.22;5044789;28;20460;-84
2022/12/02 02:38:10;;;;;;;31.20;11.73;;;4.10;99.90;;;4.64;100.00;98623.03;5045789;28;20484;-83
2022/12/02 02:40:44;;;;;;;27.10;12.37;;;4.10;99.90;;;4.60;100.00;98619.91;5045797;28;20517;-84
2022/12/02 02:43:15;;;;;;;24.80;11.70;;;4.00;99.90;;;4.60;100.00;98624.25;5045385;28;20888;-84
2022/12/02 02:45:45;;;;;;;24.93;11.80;;;4.10;99.90;;;4.63;100.00;98621.41;5046018;28;20518;-84
2022/12/02 02:48:17;;;;;;;24.00;11.10;;;4.10;99.90;;;4.66;100.00;98623.72;5043828;28;20492;-84
2022/12/02 02:50:49;;;;;;;26.93;12.20;;;4.20;99.90;;;4.63;100.00;98618.81;5043459;28;20468;-84
2022/12/02 02:53:23;;;;;;;23.27;11.30;;;4.10;99.90;;;4.65;100.00;98622.09;5046148;28;21070;-84
2022/12/02 02:55:54;;;;;;;23.23;11.87;;;4.10;99.90;;;4.65;100.00;98619.50;5044884;28;20465;-84
2022/12/02 02:58:27;;;;;;;24.60;10.60;;;4.10;99.90;;;4.63;100.00;98613.63;5046316;28;20605;-84
2022/12/02 03:01:01;;;;;;;22.50;11.80;;;4.10;99.90;;;4.65;100.00;98622.09;5049745;28;20468;-84
2022/12/02 03:03:35;;;;;;;23.30;11.70;;;4.10;99.90;;;4.61;100.00;98618.13;5046280;28;20475;-84
2022/12/02 03:06:09;;;;;;;23.47;11.70;;;4.10;99.90;;;4.58;100.00;98609.66;5042960;28;20858;-84
2022/12/02 03:08:45;;;;;;;27.13;11.77;;;4.10;99.90;;;4.63;100.00;98604.09;5044908;28;20474;-83
2022/12/02 03:11:16;;;;;;;26.47;11.37;;;4.10;99.90;;;4.66;100.00;98603.00;5046232;28;20461;-84
2022/12/02 03:13:50;;;;;;;20.60;10.40;;;4.10;99.90;;;4.62;100.00;98597.25;5044205;28;20480;-84
2022/12/02 03:16:24;;;;;;;25.30;11.67;;;4.10;99.90;;;4.54;100.00;98610.91;5046603;28;20464;-84
2022/12/02 03:18:56;;;;;;;29.63;12.33;;;4.00;99.90;;;4.56;100.00;98603.81;5047071;28;20460;-83
2022/12/02 03:21:27;;;;;;;29.53;11.80;;;4.00;99.90;;;4.58;100.00;98609.66;5047211;28;20493;-83
2022/12/02 03:24:01;;;;;;;22.00;11.70;;;4.10;99.90;;;4.61;100.00;98610.38;5044730;28;20468;-84
2022/12/02 03:26:33;;;;;;;25.53;12.17;;;4.10;99.90;;;4.63;100.00;98608.44;5041673;28;20460;-83
2022/12/02 03:29:06;;;;;;;22.50;11.27;;;4.10;99.90;;;4.63;100.00;98600.69;5046291;28;20460;-84
2022/12/02 03:31:35;;;;;;;29.87;12.90;;;4.20;99.90;;;4.64;100.00;98600.56;5041299;28;20471;-83
2022/12/02 03:34:06;;;;;;;25.70;12.90;;;4.10;99.90;;;4.58;100.00;98595.94;5041942;28;20566;-83
2022/12/02 03:36:35;;;;;;;24.87;12.17;;;4.10;99.90;;;4.62;100.00;98592.09;5044389;28;20840;-84
2022/12/02 03:39:06;;;;;;;28.83;12.73;;;4.10;99.90;;;4.62;100.00;98599.06;5046684;28;20555;-84
2022/12/02 03:41:37;;;;;;;20.83;11.50;;;4.10;99.90;;;4.61;100.00;98593.06;5047299;28;20830;-84
2022/12/02 03:44:07;;;;;;;26.93;12.93;;;4.10;99.90;;;4.63;100.00;98585.13;5047223;28;20472;-84
2022/12/02 03:46:37;;;;;;;26.13;13.03;;;4.00;99.90;;;4.63;100.00;98585.13;5046415;28;20499;-84
2022/12/02 03:49:08;;;;;;;31.20;12.40;;;4.10;99.90;;;4.66;100.00;98588.28;5046505;28;20496;-84
2022/12/02 03:51:37;;;;;;;30.70;12.87;;;4.10;99.90;;;4.64;100.00;98579.84;5044217;28;20477;-84
2022/12/02 03:54:07;;;;;;;28.70;13.07;;;4.10;99.90;;;4.66;100.00;98582.28;5047150;28;20468;-82
2022/12/02 03:56:42;;;;;;;36.63;12.97;;;4.10;99.90;;;4.66;100.00;98571.91;5041895;28;20461;-83
2022/12/02 03:59:20;;;;;;;27.53;12.53;;;4.00;99.90;;;4.64;100.00;98573.84;5048321;28;21077;-82
2022/12/02 04:01:50;;;;;;;31.50;11.50;;;4.10;99.90;;;4.66;100.00;98577.91;5046172;28;20552;-83
2022/12/02 04:04:21;;;;;;;25.43;12.80;;;4.10;99.90;;;4.62;100.00;98580.94;5043720;28;20473;-83
2022/12/02 04:06:51;;;;;;;31.87;12.30;;;4.10;99.90;;;4.63;100.00;98577.38;5043694;28;20591;-82
2022/12/02 04:09:22;;;;;;;26.00;12.50;;;4.10;99.90;;;4.62;100.00;98566.19;5045194;28;20461;-82
2022/12/02 04:11:52;;;;;;;27.27;13.83;;;4.10;99.90;;;4.62;100.00;98560.22;5045747;28;20465;-83
2022/12/02 04:14:21;;;;;;;33.10;12.80;;;4.10;99.90;;;4.64;100.00;98560.88;5039854;28;20465;-82
2022/12/02 04:16:51;;;;;;;29.87;12.63;;;4.10;99.90;;;4.61;100.00;98553.41;5041460;28;20463;-83
2022/12/02 04:19:21;;;;;;;49.10;21.83;;;4.10;99.90;;;4.64;100.00;98553.13;5044119;28;20458;-83
2022/12/02 04:21:50;;;;;;;28.67;13.10;;;4.10;99.90;;;4.64;100.00;98558.28;5038984;28;20460;-85
2022/12/02 04:24:20;;;;;;;24.70;13.10;;;4.10;99.90;;;4.62;100.00;98549.88;5041856;28;20452;-83
2022/12/02 04:26:52;;;;;;;26.03;12.53;;;4.10;99.90;;;4.52;100.00;98544.66;5037924;28;20469;-83
2022/12/02 04:29:21;;;;;;;33.50;14.17;;;4.00;99.90;;;4.54;100.00;98547.94;5038843;28;20491;-82
2022/12/02 04:31:51;;;;;;;35.77;15.47;;;4.10;99.90;;;4.55;100.00;98542.63;5036717;28;20918;-84
2022/12/02 04:34:21;;;;;;;33.73;15.03;;;4.10;99.90;;;4.57;100.00;98538.13;5038729;28;20468;-84
2022/12/02 04:36:51;;;;;;;34.47;14.77;;;4.10;99.90;;;4.53;100.00;98531.59;5042289;28;20555;-84
2022/12/02 04:39:21;;;;;;;30.10;13.70;;;4.10;99.90;;;4.54;100.00;98533.22;5039280;28;20464;-84
2022/12/02 04:41:53;;;;;;;39.53;17.57;;;4.10;99.90;;;4.55;100.00;98528.84;5035479;28;20468;-84
2022/12/02 04:44:21;;;;;;;33.43;13.60;;;4.10;99.90;;;4.52;100.00;98518.75;5036826;28;21349;-84
2022/12/02 04:46:52;;;;;;;39.80;15.10;;;4.10;99.90;;;4.49;100.00;98524.22;5044801;28;20457;-84
2022/12/02 04:49:22;;;;;;;32.00;13.80;;;4.00;99.90;;;4.48;100.00;98525.16;5046984;28;21065;-84
2022/12/02 04:51:52;;;;;;;33.00;14.57;;;4.00;99.90;;;4.46;100.00;98532.28;5045509;28;20879;-84
2022/12/02 04:54:22;;;;;;;37.40;14.87;;;3.90;99.90;;;4.48;100.00;98533.75;5042452;28;20479;-84
2022/12/02 04:56:53;;;;;;;32.17;13.10;;;3.90;99.90;;;4.51;100.00;98530.91;5046022;28;20522;-84
2022/12/02 04:59:23;;;;;;;35.90;14.07;;;4.00;99.90;;;4.47;100.00;98524.38;5045561;28;20529;-84
2022/12/02 05:01:53;;;;;;;31.03;14.03;;;4.00;99.90;;;4.49;100.00;98522.47;5044615;28;20512;-83
2022/12/02 05:04:22;;;;;;;31.67;12.80;;;4.00;99.90;;;4.48;100.00;98523.41;5044412;28;20555;-84
2022/12/02 05:06:52;;;;;;;32.57;12.30;;;4.00;99.90;;;4.46;100.00;98519.31;5044217;28;20472;-84
2022/12/02 05:09:24;;;;;;;30.10;13.73;;;4.00;99.90;;;4.45;100.00;98513.31;5040670;28;20472;-84
2022/12/02 05:11:54;;;;;;;32.07;13.50;;;3.90;99.90;;;4.41;100.00;98511.97;5040388;28;20465;-84
2022/12/02 05:14:24;;;;;;;26.87;12.77;;;4.00;99.90;;;4.40;100.00;98505.16;5041699;28;20472;-84
2022/12/02 05:16:54;;;;;;;36.93;14.37;;;3.90;99.90;;;4.38;100.00;98496.69;5043621;28;20470;-84
2022/12/02 05:19:24;;;;;;;28.40;12.40;;;4.00;99.90;;;4.36;100.00;98503.81;5044711;28;20584;-83
2022/12/02 05:21:53;;;;;;;31.33;13.27;;;3.90;99.90;;;4.38;100.00;98495.88;5042555;28;20466;-84
2022/12/02 05:24:23;;;;;;;31.70;12.87;;;4.00;99.90;;;4.34;100.00;98494.53;5042457;28;20473;-83
2022/12/02 05:26:54;;;;;;;34.63;11.67;;;3.90;99.90;;;4.27;100.00;98483.91;5043864;28;20496;-84
2022/12/02 05:29:26;;;;;;;30.30;12.97;;;3.90;99.90;;;4.33;100.00;98487.72;5037391;28;21099;-83
2022/12/02 05:31:56;;;;;;;29.87;13.00;;;3.90;99.90;;;4.28;100.00;98495.88;5039965;28;20982;-84
2022/12/02 05:34:26;;;;;;;29.10;11.30;;;3.90;99.90;;;4.30;100.00;98491.41;5040307;28;20975;-83
2022/12/02 05:36:55;;;;;;;35.37;14.30;;;3.80;99.90;;;4.31;100.00;98490.44;5042245;28;20605;-82
2022/12/02 05:39:24;;;;;;;40.53;13.47;;;3.70;99.90;;;4.32;100.00;98484.31;5037998;28;20669;-84
2022/12/02 05:42:01;;;;;;;28.17;11.00;;;3.80;99.90;;;4.33;100.00;98485.97;5042366;28;20471;-83
2022/12/02 05:44:33;;;;;;;30.80;13.37;;;3.90;99.90;;;4.33;100.00;98488.53;5039846;28;20466;-83
2022/12/02 05:47:12;;;;;;;33.03;12.70;;;3.80;99.90;;;4.35;100.00;98494.38;5045203;28;20545;-83
2022/12/02 05:49:44;;;;;;;31.83;12.20;;;3.90;99.90;;;4.35;100.00;98501.34;5047989;28;20498;-83
2022/12/02 05:52:24;;;;;;;31.03;13.97;;;3.80;99.90;;;4.32;100.00;98492.09;5047035;28;20568;-83
2022/12/02 05:54:57;;;;;;;31.07;12.77;;;3.90;99.90;;;4.37;100.00;98489.88;5049672;28;20825;-83
2022/12/02 05:57:30;;;;;;;24.40;11.43;;;3.90;99.90;;;4.36;100.00;98483.09;5048311;28;20475;-83
2022/12/02 06:00:15;;;;;;;27.40;13.87;;;3.80;99.90;;;4.38;100.00;98483.75;5048759;28;20503;-83
2022/12/02 06:02:48;;;;;;;30.50;13.43;;;3.90;99.90;;;4.33;100.00;98477.38;5046601;28;20478;-83
2022/12/02 06:05:24;;;;;;;30.47;13.70;;;3.80;99.90;;;4.29;100.00;98484.59;5050606;28;20470;-82
2022/12/02 06:07:57;;;;;;;26.13;12.50;;;3.80;99.90;;;4.33;100.00;98482.53;5048019;28;20474;-83
2022/12/02 06:10:30;;;;;;;34.37;13.43;;;3.80;99.90;;;4.34;100.00;98479.81;5048982;28;20475;-83
2022/12/02 06:13:10;;;;;;;29.30;12.90;;;3.80;99.90;;;4.33;100.00;98477.38;5047441;28;20470;-83
2022/12/02 06:15:40;;;;;;;29.73;13.97;;;3.80;99.90;;;4.28;100.00;98479.53;5043874;28;20462;-83
2022/12/02 06:18:15;;;;;;;31.60;14.10;;;3.70;99.90;;;4.28;100.00;98485.53;5044933;28;20615;-83
2022/12/02 06:20:47;;;;;;;31.00;13.30;;;3.70;99.90;;;4.29;100.00;98484.59;5043662;28;20492;-83
2022/12/02 06:23:20;;;;;;;36.50;14.30;;;3.70;99.90;;;4.28;100.00;98482.13;5046115;28;20993;-83
2022/12/02 06:25:53;;;;;;;29.17;13.30;;;3.60;99.90;;;4.28;100.00;98480.34;5045192;28;20933;-83
2022/12/02 06:28:30;;;;;;;35.73;15.10;;;3.60;99.90;;;4.29;100.00;98487.19;5043531;28;20834;-83
2022/12/02 06:31:09;;;;;;;32.27;13.80;;;3.70;99.90;;;4.32;100.00;98489.50;5045120;28;20478;-83
2022/12/02 06:33:40;;;;;;;31.03;13.80;;;3.70;99.90;;;4.35;100.00;98491.81;5044475;28;20955;-83
2022/12/02 06:36:14;;;;;;;39.03;14.20;;;3.70;99.90;;;4.33;100.00;98487.72;5044286;28;21352;-82
2022/12/02 06:38:49;;;;;;;26.97;12.47;;;3.70;99.90;;;4.37;100.00;98489.09;5043154;28;21271;-83
2022/12/02 06:41:24;;;;;;;26.63;12.50;;;3.70;99.90;;;4.38;100.00;98493.28;5048409;28;20455;-83
2022/12/02 06:46:47;;;;;;;33.07;13.77;;;3.80;99.90;;;4.37;100.00;98497.66;5049065;28;20879;-82
2022/12/02 06:49:21;;;;;;;32.50;14.00;;;3.80;99.90;;;4.36;100.00;98493.44;5048572;28;20481;-83
2022/12/02 06:51:57;;;;;;;39.53;15.30;;;3.80;99.90;;;4.38;100.00;98494.13;5049321;28;20457;-83
2022/12/02 06:54:30;;;;;;;36.03;14.00;;;3.80;99.90;;;4.37;100.00;98497.66;5050434;28;20482;-83
2022/12/02 06:57:03;;;;;;;30.73;13.37;;;3.80;99.90;;;4.34;100.00;98489.38;5049691;28;20459;-83
2022/12/02 06:59:34;;;;;;;38.60;14.20;;;3.80;99.90;;;4.33;100.00;98491.13;5049702;28;20490;-83
2022/12/02 07:02:18;;;;;;;33.97;14.43;;;3.90;99.90;;;4.32;100.00;98492.09;5048002;28;20504;-82
2022/12/02 07:04:51;;;;;;;32.53;13.90;;;3.80;99.90;;;4.36;100.00;98493.44;5048215;28;20910;-83
2022/12/02 07:07:23;;;;;;;36.80;13.70;;;3.90;99.90;;;4.37;100.00;98492.47;5048857;28;20537;-83
2022/12/02 07:09:56;;;;;;;31.87;13.17;;;3.80;99.90;;;4.32;100.00;98486.09;5049342;28;20464;-82
2022/12/02 07:12:36;;;;;;;29.73;12.60;;;3.80;99.90;;;4.37;100.00;98491.69;5048546;28;20489;-83
2022/12/02 07:15:27;;;;;;;40.37;14.30;;;3.80;99.90;;;4.36;100.00;98480.50;5049807;28;20826;-83
2022/12/02 07:18:01;;;;;;;29.23;12.93;;;3.80;99.90;;;4.34;100.00;98479.00;5047560;28;20467;-83
2022/12/02 07:20:35;;;;;;;39.10;15.50;;;3.80;99.90;;;4.35;100.00;98481.44;5046495;28;21052;-83
2022/12/02 07:23:18;;;;;;;38.20;15.77;;;3.80;99.90;;;4.29;100.00;98484.59;5045031;28;21035;-83
2022/12/02 07:25:52;;;;;;;44.50;15.83;;;3.80;99.90;;;4.22;100.00;98475.75;5045699;28;21025;-83
2022/12/02 07:28:28;;;;;;;34.03;13.40;;;3.70;99.90;;;4.23;100.00;98476.56;5050087;28;20502;-82
2022/12/02 07:31:02;;;;;;;30.70;12.90;;;3.60;99.90;;;4.28;100.00;98470.00;5048568;28;20511;-83
2022/12/02 07:33:33;;;;;;;36.07;14.10;;;3.70;99.90;;;4.24;100.00;98473.81;5049329;28;20514;-83
2022/12/02 07:36:02;;;;;;;31.73;14.30;;;3.60;99.90;;;4.25;100.00;98472.88;5049127;28;20495;-83
2022/12/02 07:38:32;;;;;;;32.23;14.03;;;3.70;99.90;;;4.21;100.00;98471.50;5048847;28;21000;-83
2022/12/02 07:41:21;;;;;;;29.23;13.80;;;3.60;99.90;;;4.25;100.00;98472.88;5048601;28;20457;-83
2022/12/02 07:43:51;;;;;;;31.80;14.47;;;3.80;99.90;;;4.28;100.00;98470.00;5045021;28;20474;-83
2022/12/02 07:46:22;;;;;;;45.57;16.07;;;3.80;99.90;;;4.27;100.00;98472.75;5044995;28;20550;-83
2022/12/02 07:48:52;;;;;;;36.23;13.73;;;3.70;99.90;;;4.27;100.00;98470.94;5045402;28;20503;-82
2022/12/02 07:51:25;;;;;;;39.33;14.17;;;3.70;99.90;;;4.21;100.00;98466.34;5046166;28;20469;-83
2022/12/02 07:53:55;;;;;;;36.73;14.63;;;3.70;99.90;;;4.24;100.00;98463.47;5043742;28;20470;-83
2022/12/02 07:56:24;;;;;;;37.73;15.03;;;3.80;99.90;;;4.27;100.00;98467.56;5045915;28;20472;-83
2022/12/02 07:58:54;;;;;;;35.13;12.47;;;3.80;99.90;;;4.27;100.00;98463.19;5041876;28;20968;-83
2022/12/02 08:01:44;;;;;;;29.90;14.60;;;3.80;99.90;;;4.29;100.00;98466.47;5043541;28;20479;-83
2022/12/02 08:04:13;;;;;;;33.27;13.97;;;3.70;99.90;;;4.30;100.00;98459.53;5043687;28;20470;-83
2022/12/02 08:06:43;;;;;;;30.57;13.47;;;3.70;99.90;;;4.31;100.00;98468.91;5043063;28;20516;-82
2022/12/02 08:09:12;;;;;;;30.60;13.10;;;3.70;99.90;;;4.29;100.00;98463.88;5041476;28;20800;-83
2022/12/02 08:11:42;;;;;;;32.67;13.07;;;3.70;99.90;;;4.29;100.00;98461.28;5042168;28;20526;-83
2022/12/02 08:14:11;;;;;;;49.80;14.17;;;3.70;99.90;;;4.34;100.00;98469.44;5041144;28;21075;-83
2022/12/02 08:16:42;;;;;;;36.50;13.57;;;3.80;99.90;;;4.36;100.00;98474.50;5041296;28;20541;-83
2022/12/02 08:19:12;;;;;;;35.23;14.87;;;3.90;99.90;;;4.29;100.00;98461.28;5042850;28;20490;-83
2022/12/02 08:21:41;;;;;;;35.00;13.93;;;3.80;99.90;;;4.25;100.00;98465.09;5041860;28;20987;-83
2022/12/02 08:24:10;;;;;;;35.70;14.20;;;3.70;99.90;;;4.23;100.00;98461.84;5041490;28;20962;-83
2022/12/02 08:26:42;;;;;;;39.03;14.60;;;3.80;99.90;;;4.27;100.00;98468.38;5044321;28;20469;-83
2022/12/02 08:29:12;;;;;;;42.27;14.60;;;3.80;99.90;;;4.30;100.00;98464.72;5046362;28;20473;-83
2022/12/02 08:31:44;;;;;;;33.30;14.20;;;3.80;99.90;;;4.30;100.00;98462.94;5048814;28;20984;-84
2022/12/02 08:34:13;;;;;;;33.53;13.77;;;3.80;99.90;;;4.31;100.00;98461.97;5047854;28;20467;-83
2022/12/02 08:36:43;;;;;;;42.30;14.10;;;3.80;99.90;;;4.32;100.00;98461.00;5047462;28;20471;-83
2022/12/02 08:39:13;;;;;;;40.43;15.00;;;3.80;99.90;;;4.34;100.00;98464.28;5047146;28;20950;-83
2022/12/02 08:41:42;;;;;;;34.80;13.60;;;3.80;99.90;;;4.32;100.00;98455.84;5048036;28;20494;-82
2022/12/02 08:44:12;;;;;;;36.50;15.80;;;3.80;99.90;;;4.35;100.00;98458.16;5047174;28;20466;-83
2022/12/02 08:46:44;;;;;;;41.73;15.10;;;3.80;99.90;;;4.38;100.00;98457.88;5048380;28;20464;-82
2022/12/02 08:49:22;;;;;;;33.37;13.73;;;3.80;99.90;;;4.42;100.00;98456.66;5048782;28;20474;-83
2022/12/02 08:51:52;;;;;;;43.43;15.37;;;3.80;99.90;;;4.44;100.00;98454.72;5047545;28;20476;-83
2022/12/02 08:54:21;;;;;;;44.67;15.40;;;3.80;99.90;;;4.43;100.00;98457.47;5049373;28;20464;-83
2022/12/02 08:56:50;;;;;;;39.90;14.60;;;3.80;99.90;;;4.43;100.00;98453.13;5047321;28;20552;-83
2022/12/02 08:59:19;;;;;;;40.40;14.33;;;3.90;99.90;;;4.43;100.00;98453.13;5048820;28;20492;-83
2022/12/02 09:01:51;;;;;;;49.53;15.07;;;3.80;99.90;;;4.46;100.00;98459.78;5046196;28;20476;-83
2022/12/02 09:04:21;;;;;;;41.33;15.00;;;3.80;99.90;;;4.46;100.00;98454.59;5045995;28;20486;-83
2022/12/02 09:06:51;;;;;;;36.83;12.53;;;3.90;99.90;;;4.29;100.00;98463.06;5043425;28;20979;-83
2022/12/02 09:09:21;;;;;;;40.83;15.17;;;3.60;99.90;;;4.33;100.00;98460.06;5043304;28;20492;-82
2022/12/02 09:11:50;;;;;;;40.33;15.60;;;3.70;99.90;;;4.29;100.00;98461.28;5044682;28;20901;-83
2022/12/02 09:14:20;;;;;;;41.03;14.57;;;3.70;99.90;;;4.30;100.00;98462.94;5043876;28;20826;-83
2022/12/02 09:16:50;;;;;;;35.67;14.70;;;3.80;99.90;;;4.36;100.00;98467.56;5048002;28;20555;-83
2022/12/02 09:19:20;;;;;;;31.77;13.50;;;3.80;99.90;;;4.33;100.00;98460.06;5046269;28;20864;-83
2022/12/02 09:21:48;;;;;;;33.57;13.23;;;3.70;99.90;;;4.36;100.00;98461.56;5047981;28;20468;-83
2022/12/02 09:24:18;;;;;;;34.87;15.10;;;3.70;99.90;;;4.40;100.00;98461.16;5045610;28;20472;-83
2022/12/02 09:26:48;;;;;;;33.73;14.07;;;3.80;99.90;;;4.43;100.00;98460.88;5045056;28;20502;-83
2022/12/02 09:29:18;;;;;;;31.07;12.53;;;3.80;99.90;;;4.43;100.00;98463.47;5040777;28;20539;-83
2022/12/02 09:31:49;;;;;;;36.07;13.60;;;3.80;99.90;;;4.46;100.00;98460.59;5041035;28;20519;-83
2022/12/02 09:34:19;;;;;;;32.77;13.60;;;3.80;99.90;;;4.49;100.00;98457.72;5040550;28;20961;-82
2022/12/02 09:36:48;;;;;;;21.70;10.67;;;3.90;99.90;;;4.51;100.00;98455.81;5041713;28;20508;-82
2022/12/02 09:39:18;;;;;;;24.77;10.47;;;3.90;99.90;;;4.48;100.00;98455.25;5042434;28;20463;-83
2022/12/02 09:41:48;;;;;;;28.83;12.23;;;3.90;99.90;;;4.50;100.00;98455.97;5041600;28;20494;-83
2022/12/02 09:44:17;;;;;;;20.10;10.87;;;3.90;99.90;;;4.48;100.00;98456.09;5039910;28;20461;-82
2022/12/02 09:46:47;;;;;;;24.07;11.60;;;3.90;99.90;;;4.49;100.00;98449.13;5040642;28;20474;-83
2022/12/02 09:49:18;;;;;;;29.30;12.00;;;3.90;99.90;;;4.51;100.00;98460.97;5043036;28;20475;-82
2022/12/02 09:51:49;;;;;;;25.27;12.17;;;3.90;99.90;;;4.47;100.00;98454.47;5040879;28;20914;-83
2022/12/02 09:54:19;;;;;;;29.70;12.30;;;3.90;99.90;;;4.42;100.00;98451.47;5040428;28;20544;-82
2022/12/02 09:56:49;;;;;;;21.60;10.93;;;3.90;99.90;;;4.43;100.00;98452.28;5042590;28;21140;-82
2022/12/02 09:59:18;;;;;;;21.43;10.83;;;3.80;99.90;;;4.47;100.00;98444.13;5042866;28;20476;-83
2022/12/02 10:01:49;;;;;;;24.40;10.30;;;3.90;99.90;;;4.48;100.00;98447.50;5040964;28;20581;-83
2022/12/02 10:04:22;;;;;;;24.53;11.40;;;3.90;99.90;;;4.47;100.00;98446.72;5042313;28;20560;-81
2022/12/02 10:06:51;;;;;;;20.37;10.47;;;3.90;99.90;;;4.49;100.00;98449.97;5042918;28;20468;-83
2022/12/02 10:09:30;;;;;;;23.80;11.03;;;3.90;99.90;;;4.50;100.00;98441.25;5041959;28;20555;-82
2022/12/02 10:12:00;;;;;;;20.30;10.00;;;4.00;99.90;;;4.49;100.00;98438.78;5039890;28;20548;-82
2022/12/02 10:14:29;;;;;;;20.83;9.23;;;4.00;99.90;;;4.48;100.00;98434.56;5043817;28;20473;-83
2022/12/02 10:16:59;;;;;;;21.60;11.13;;;3.90;99.90;;;4.44;100.00;98434.00;5046317;28;20496;-82
2022/12/02 10:19:31;;;;;;;25.63;9.50;;;3.80;99.90;;;4.48;100.00;98427.59;5047109;28;20574;-82
2022/12/02 10:22:00;;;;;;;22.73;9.97;;;3.90;99.90;;;4.49;100.00;98437.00;5047579;28;20551;-83
2022/12/02 10:24:38;;;;;;;23.87;9.43;;;3.90;99.90;;;4.49;100.00;98425.84;5047244;28;20464;-83
2022/12/02 10:27:08;;;;;;;20.83;9.27;;;3.90;99.90;;;4.49;100.00;98434.44;5047696;28;20461;-82
2022/12/02 10:29:38;;;;;;;19.87;8.00;;;3.90;99.90;;;4.49;100.00;98426.66;5045635;28;20606;-83
2022/12/02 10:32:22;;;;;;;21.63;9.10;;;3.90;99.90;;;4.48;100.00;98426.78;5047171;28;20574;-83
2022/12/02 10:35:08;;;;;;;15.87;7.00;;;3.90;99.90;;;4.43;100.00;98421.22;5046866;28;20837;-83
2022/12/02 10:37:39;;;;;;;18.50;9.23;;;3.90;99.90;;;4.47;100.00;98422.59;5051072;28;20472;-83